Time;durP1;ratioP1;P1;durP2;ratioP2;P2;SDS_P1;SDS_P2;PMS_P1;PMS_P2;Temp;Humidity;BMP_temperature;BMP_pressure;BME280_temperature;BME280_humidity;BME280_pressure;Samples;Min_cycle;Max_cycle;Signal;HPM_P1;HPM_P2
2022/01/03 00:00:28;;;;;;;15.53;7.90;;;;;;;7.00;100.00;99405.09;5090646;28;20202;-59
2022/01/03 00:02:59;;;;;;;15.30;8.80;;;;;;;6.94;100.00;99395.25;5091015;28;20202;-59
2022/01/03 00:05:26;;;;;;;13.40;8.23;;;;;;;6.90;100.00;99393.78;5090966;28;20198;-68
2022/01/03 00:07:54;;;;;;;15.53;8.57;;;;;;;6.81;100.00;99389.19;5094664;28;20202;-68
2022/01/03 00:10:21;;;;;;;14.97;7.97;;;;;;;6.71;100.00;99388.00;5094528;28;20232;-59
2022/01/03 00:12:49;;;;;;;14.77;7.33;;;;;;;6.68;100.00;99386.44;5094696;28;20214;-59
2022/01/03 00:15:18;;;;;;;12.53;7.07;;;;;;;6.60;100.00;99385.19;5094621;28;20286;-60
2022/01/03 00:17:46;;;;;;;12.87;7.23;;;;;;;6.69;100.00;99379.63;5094380;28;20240;-59
2022/01/03 00:20:15;;;;;;;12.30;6.43;;;;;;;6.80;100.00;99369.72;5094266;28;20216;-68
2022/01/03 00:22:48;;;;;;;13.90;7.40;;;;;;;6.91;100.00;99367.47;5094242;28;20217;-59
2022/01/03 00:25:17;;;;;;;12.70;6.70;;;;;;;6.80;100.00;99362.09;5094302;28;20225;-59
2022/01/03 00:27:50;;;;;;;12.07;7.00;;;;;;;6.62;100.00;99363.06;5094316;28;20206;-59
2022/01/03 00:30:19;;;;;;;13.63;7.87;;;;;;;6.52;100.00;99366.09;5094347;28;20256;-59
2022/01/03 00:32:49;;;;;;;14.77;7.53;;;;;;;6.52;100.00;99363.56;5094361;28;20266;-68
2022/01/03 00:35:18;;;;;;;14.87;7.70;;;;;;;6.44;100.00;99363.13;5094052;28;20205;-59
2022/01/03 00:37:46;;;;;;;16.60;8.77;;;;;;;6.41;100.00;99358.19;5094104;28;20266;-67
2022/01/03 00:40:14;;;;;;;13.17;7.27;;;;;;;6.38;100.00;99353.28;5093735;28;20202;-59
2022/01/03 00:42:42;;;;;;;13.30;6.97;;;;;;;6.26;100.00;99351.34;5094350;28;20243;-68
2022/01/03 00:45:09;;;;;;;15.50;8.20;;;;;;;6.24;100.00;99345.53;5093822;28;20206;-67
2022/01/03 00:47:37;;;;;;;15.83;9.10;;;;;;;6.32;100.00;99348.50;5093767;28;20205;-68
2022/01/03 00:50:07;;;;;;;16.97;8.90;;;;;;;6.29;100.00;99346.13;5094000;28;20206;-60
2022/01/03 00:52:36;;;;;;;16.53;8.93;;;;;;;6.29;100.00;99356.28;5093835;28;20598;-67
2022/01/03 00:55:03;;;;;;;18.60;9.37;;;;;;;6.32;100.00;99340.88;5093513;28;20206;-59
2022/01/03 00:57:44;;;;;;;16.80;9.43;;;;;;;6.31;100.00;99334.16;5093543;28;20233;-68
2022/01/03 01:00:12;;;;;;;13.53;7.63;;;;;;;6.24;100.00;99333.66;5093730;28;20297;-59
2022/01/03 01:02:46;;;;;;;13.13;7.83;;;;;;;6.24;100.00;99335.38;5093668;28;20198;-59
2022/01/03 01:05:13;;;;;;;13.70;7.70;;;;;;;6.20;100.00;99324.56;5093405;28;20212;-68
2022/01/03 01:07:44;;;;;;;13.17;6.83;;;;;;;6.18;100.00;99335.69;5093423;28;20202;-67
2022/01/03 01:10:10;;;;;;;15.23;7.53;;;;;;;6.08;100.00;99331.06;5093333;28;20251;-67
2022/01/03 01:12:38;;;;;;;15.53;8.37;;;;;;;6.06;100.00;99335.38;5093322;28;20667;-68
2022/01/03 01:15:06;;;;;;;13.73;8.03;;;;;;;6.17;100.00;99328.94;5093427;28;20647;-59
2022/01/03 01:17:33;;;;;;;14.10;7.43;;;;;;;6.32;100.00;99340.88;5092325;28;20234;-59
2022/01/03 01:20:01;;;;;;;15.03;7.83;;;;;;;6.55;100.00;99335.44;5093071;28;20698;-67
2022/01/03 01:22:28;;;;;;;16.17;8.20;;;;;;;6.54;100.00;99336.34;5093431;28;20221;-60
2022/01/03 01:25:23;;;;;;;14.63;8.30;;;;;;;6.46;100.00;99333.38;5093105;28;20655;-68
2022/01/03 01:27:50;;;;;;;13.33;7.13;;;;;;;6.39;100.00;99321.88;5093212;28;20202;-67
2022/01/03 01:30:18;;;;;;;15.80;8.40;;;;;;;6.52;100.00;99317.84;5093348;28;20279;-58
2022/01/03 01:32:51;;;;;;;15.67;8.10;;;;;;;6.50;100.00;99306.91;5093073;28;20210;-67
2022/01/03 01:35:22;;;;;;;14.63;8.23;;;;;;;6.37;100.00;99298.31;5092991;28;20201;-67
2022/01/03 01:37:53;;;;;;;14.63;7.93;;;;;;;6.37;100.00;99293.22;5092903;28;20229;-68
2022/01/03 01:40:22;;;;;;;14.50;7.73;;;;;;;6.51;100.00;99274.72;5092950;28;20209;-59
2022/01/03 01:42:49;;;;;;;12.63;7.43;;;;;;;6.50;100.00;99258.66;5093095;28;20198;-59
2022/01/03 01:45:20;;;;;;;16.73;8.10;;;;;;;6.45;100.00;99265.69;5092833;28;20217;-66
2022/01/03 01:47:49;;;;;;;14.03;7.33;;;;;;;6.41;100.00;99259.16;5092903;28;20197;-67
2022/01/03 01:50:16;;;;;;;16.23;7.97;;;;;;;6.41;100.00;99259.16;5092704;28;20225;-59
2022/01/03 01:52:46;;;;;;;14.33;7.73;;;;;;;6.41;100.00;99263.41;5092581;28;20206;-67
2022/01/03 01:55:16;;;;;;;14.80;8.03;;;;;;;6.37;100.00;99267.84;5092526;28;20244;-68
2022/01/03 01:58:03;;;;;;;16.57;8.33;;;;;;;6.53;100.00;99243.25;5092536;28;20244;-67
2022/01/03 02:00:31;;;;;;;13.87;8.00;;;;;;;6.62;100.00;99238.59;5092617;28;20202;-67
2022/01/03 02:03:07;;;;;;;13.93;7.60;;;;;;;6.46;100.00;99236.88;5092495;28;20198;-67
2022/01/03 02:05:38;;;;;;;14.57;7.37;;;;;;;6.42;100.00;99240.47;5092269;28;20217;-67
2022/01/03 02:08:16;;;;;;;13.43;7.10;;;;;;;6.35;100.00;99244.22;5092338;28;20229;-59
2022/01/03 02:10:45;;;;;;;13.03;7.53;;;;;;;6.27;100.00;99236.19;5092234;28;20306;-67
2022/01/03 02:13:21;;;;;;;16.30;7.37;;;;;;;6.22;100.00;99228.00;5092080;28;20202;-59
2022/01/03 02:15:57;;;;;;;15.17;7.87;;;;;;;6.16;100.00;99220.69;5092375;28;20275;-58
2022/01/03 02:18:24;;;;;;;13.47;7.40;;;;;;;6.10;100.00;99219.28;5092429;28;20248;-59
2022/01/03 02:20:52;;;;;;;12.77;7.73;;;;;;;6.21;100.00;99216.22;5092308;28;20699;-68
2022/01/03 02:23:19;;;;;;;14.03;8.10;;;;;;;6.21;100.00;99211.13;5091898;28;20205;-67
2022/01/03 02:25:46;;;;;;;14.00;8.27;;;;;;;6.33;100.00;99202.84;5091934;28;20221;-67
2022/01/03 02:28:13;;;;;;;14.10;7.70;;;;;;;6.16;100.00;99202.94;5092351;28;20600;-58
2022/01/03 02:30:40;;;;;;;14.67;7.83;;;;;;;6.06;100.00;99205.94;5092015;28;20275;-59
2022/01/03 02:33:07;;;;;;;14.53;7.40;;;;;;;6.08;100.00;99199.09;5091789;28;20217;-67
2022/01/03 02:35:38;;;;;;;13.73;7.67;;;;;;;6.17;100.00;99180.00;5091682;28;20623;-67
2022/01/03 02:38:06;;;;;;;13.67;7.23;;;;;;;6.25;100.00;99172.78;5091781;28;20283;-59
2022/01/03 02:40:33;;;;;;;12.33;7.30;;;;;;;6.18;100.00;99163.06;5091781;28;20294;-59
2022/01/03 02:43:00;;;;;;;13.40;7.07;;;;;;;6.13;100.00;99156.47;5091507;28;20210;-59
2022/01/03 02:45:27;;;;;;;12.47;6.63;;;;;;;6.18;100.00;99160.53;5091568;28;20664;-67
2022/01/03 02:47:56;;;;;;;12.73;7.47;;;;;;;6.00;100.00;99163.13;5091681;28;20205;-59
2022/01/03 02:50:25;;;;;;;12.20;7.03;;;;;;;6.05;100.00;99145.94;5091395;28;20687;-67
2022/01/03 02:52:53;;;;;;;12.67;7.63;;;;;;;6.03;100.00;99141.84;5091494;28;20198;-68
2022/01/03 02:55:21;;;;;;;12.00;6.67;;;;;;;6.04;100.00;99129.06;5091514;28;20479;-67
2022/01/03 02:57:50;;;;;;;11.87;6.83;;;;;;;5.96;100.00;99130.34;5091380;28;20722;-59
2022/01/03 03:00:19;;;;;;;10.70;6.23;;;;;;;5.94;100.00;99127.91;5091413;28;20374;-59
2022/01/03 03:02:47;;;;;;;12.10;6.00;;;;;;;5.94;100.00;99132.19;5091339;28;20198;-59
2022/01/03 03:05:14;;;;;;;12.20;6.60;;;;;;;5.88;100.00;99138.34;5091372;28;20615;-58
2022/01/03 03:07:41;;;;;;;12.50;6.87;;;;;;;5.89;100.00;99140.00;5091564;28;20666;-59
2022/01/03 03:10:11;;;;;;;13.93;6.53;;;;;;;5.83;100.00;99145.38;5091219;28;20202;-67
2022/01/03 03:12:40;;;;;;;12.37;6.83;;;;;;;5.81;100.00;99137.03;5091244;28;20201;-59
2022/01/03 03:15:09;;;;;;;13.30;6.93;;;;;;;5.81;100.00;99149.72;5091147;28;20205;-67
2022/01/03 03:17:37;;;;;;;13.10;6.57;;;;;;;5.75;100.00;99147.50;5090886;28;20238;-67
2022/01/03 03:20:07;;;;;;;11.80;6.87;;;;;;;5.70;100.00;99136.75;5090919;28;20205;-59
2022/01/03 03:22:34;;;;;;;12.80;7.27;;;;;;;5.63;100.00;99139.59;5090977;28;20217;-67
2022/01/03 03:25:04;;;;;;;12.43;6.60;;;;;;;5.59;100.00;99133.06;5090795;28;20202;-59
2022/01/03 03:27:31;;;;;;;11.80;6.33;;;;;;;5.57;100.00;99129.78;5091060;28;20218;-67
2022/01/03 03:29:59;;;;;;;10.47;6.57;;;;;;;5.55;100.00;99129.03;5090753;28;20198;-59
2022/01/03 03:32:29;;;;;;;11.37;6.27;;;;;;;5.50;100.00;99128.47;5091098;28;20222;-64
2022/01/03 03:34:56;;;;;;;13.10;6.60;;;;;;;5.46;100.00;99126.97;5090784;28;20205;-67
2022/01/03 03:37:23;;;;;;;11.30;6.27;;;;;;;5.43;100.00;99122.06;5091058;28;20249;-58
2022/01/03 03:39:49;;;;;;;12.27;6.47;;;;;;;5.47;100.00;99117.63;5090570;28;20664;-67
2022/01/03 03:42:16;;;;;;;10.73;6.40;;;;;;;5.48;100.00;99117.56;5090294;28;20218;-58
2022/01/03 03:44:45;;;;;;;10.33;6.10;;;;;;;5.44;100.00;99126.25;5090685;28;20221;-58
2022/01/03 03:47:13;;;;;;;11.23;6.03;;;;;;;5.51;100.00;99109.81;5091072;28;20221;-65
2022/01/03 03:49:41;;;;;;;8.73;5.57;;;;;;;5.41;100.00;99111.16;5090516;28;20202;-66
2022/01/03 03:52:08;;;;;;;10.33;6.20;;;;;;;5.35;100.00;99116.53;5090843;28;20229;-58
2022/01/03 03:54:35;;;;;;;14.13;6.20;;;;;;;5.31;100.00;99112.53;5090458;28;20205;-67
2022/01/03 03:57:03;;;;;;;10.73;5.90;;;;;;;5.39;100.00;99107.91;5090696;28;20226;-58
2022/01/03 03:59:31;;;;;;;10.23;6.40;;;;;;;5.27;100.00;99121.19;5090700;28;20202;-58
2022/01/03 04:01:58;;;;;;;10.07;6.03;;;;;;;5.30;100.00;99121.03;5090611;28;20226;-67
2022/01/03 04:04:27;;;;;;;10.77;6.13;;;;;;;5.34;100.00;99114.91;5090752;28;20241;-58
2022/01/03 04:06:54;;;;;;;11.30;5.80;;;;;;;5.30;100.00;99115.97;5090607;28;20307;-66
2022/01/03 04:09:21;;;;;;;11.33;5.90;;;;;;;5.22;100.00;99109.56;5090577;28;20679;-67
2022/01/03 04:11:48;;;;;;;8.90;5.27;;;;;;;5.26;100.00;99106.88;5090802;28;20226;-58
2022/01/03 04:14:15;;;;;;;10.10;5.60;;;;;;;5.22;100.00;99117.16;5090494;28;20671;-67
2022/01/03 04:16:42;;;;;;;10.37;5.53;;;;;;;5.15;100.00;99123.44;5090759;28;20225;-67
2022/01/03 04:19:09;;;;;;;9.13;5.40;;;;;;;5.07;100.00;99125.53;5090543;28;20202;-68
2022/01/03 04:21:39;;;;;;;12.63;6.63;;;;;;;5.05;100.00;99127.31;5090428;28;20224;-67
2022/01/03 04:24:07;;;;;;;16.87;8.13;;;;;;;5.01;100.00;99147.81;5090244;28;20642;-67
2022/01/03 04:26:34;;;;;;;15.50;7.70;;;;;;;4.95;100.00;99142.16;5090137;28;20731;-58
2022/01/03 04:29:00;;;;;;;10.33;6.70;;;;;;;5.00;100.00;99144.44;5090339;28;20209;-59
2022/01/03 04:31:27;;;;;;;9.13;5.53;;;;;;;5.03;100.00;99149.38;5090217;28;20222;-67
2022/01/03 04:33:54;;;;;;;8.03;5.07;;;;;;;5.11;100.00;99147.28;5090256;28;20213;-59
2022/01/03 04:36:21;;;;;;;10.53;5.67;;;;;;;5.08;100.00;99137.28;5090248;28;20222;-67
2022/01/03 04:38:49;;;;;;;10.73;5.90;;;;;;;5.05;100.00;99137.44;5090472;28;20229;-67
2022/01/03 04:41:16;;;;;;;12.03;5.93;;;;;;;4.98;100.00;99138.66;5090098;28;20229;-59
2022/01/03 04:43:43;;;;;;;10.43;6.40;;;;;;;4.81;100.00;99123.44;5090229;28;20206;-66
2022/01/03 04:46:10;;;;;;;10.40;6.30;;;;;;;4.83;100.00;99112.34;5090268;28;20218;-67
2022/01/03 04:48:38;;;;;;;10.70;6.60;;;;;;;4.79;100.00;99115.09;5090135;28;20209;-66
2022/01/03 04:51:05;;;;;;;9.40;5.63;;;;;;;4.71;100.00;99123.88;5090447;28;20226;-59
2022/01/03 04:53:36;;;;;;;8.97;5.57;;;;;;;4.54;100.00;99116.28;5091474;28;20209;-59
2022/01/03 04:56:04;;;;;;;7.30;5.10;;;;;;;4.20;100.00;99133.00;5093869;28;20647;-59
2022/01/03 04:58:31;;;;;;;8.70;5.03;;;;;;;4.04;100.00;99132.88;5093425;28;20734;-67
2022/01/03 05:00:58;;;;;;;10.67;5.77;;;;;;;3.86;100.00;99116.78;5093721;28;20718;-59
2022/01/03 05:03:25;;;;;;;9.60;5.40;;;;;;;3.73;100.00;99112.38;5093682;28;20198;-59
2022/01/03 05:05:52;;;;;;;10.57;6.33;;;;;;;3.60;100.00;99117.13;5093628;28;20734;-67
2022/01/03 05:08:19;;;;;;;10.50;6.13;;;;;;;3.54;100.00;99107.28;5093540;28;20194;-68
2022/01/03 05:10:45;;;;;;;10.53;6.17;;;;;;;3.45;100.00;99107.66;5093551;28;20228;-59
2022/01/03 05:13:13;;;;;;;11.30;6.17;;;;;;;3.31;100.00;99096.44;5093437;28;20205;-67
2022/01/03 05:15:40;;;;;;;12.93;6.30;;;;;;;3.24;100.00;99095.06;5093369;28;20232;-68
2022/01/03 05:18:07;;;;;;;10.63;6.07;;;;;;;3.27;100.00;99102.50;5093160;28;20681;-59
2022/01/03 05:20:34;;;;;;;11.90;6.70;;;;;;;3.23;100.00;99103.53;5093259;28;20250;-59
2022/01/03 05:23:01;;;;;;;11.03;6.53;;;;;;;3.07;100.00;99112.63;5093050;28;20288;-59
2022/01/03 05:25:28;;;;;;;13.93;6.27;;;;;;;3.00;100.00;99116.31;5093341;28;20280;-59
2022/01/03 05:27:55;;;;;;;10.40;6.20;;;;;;;3.00;100.00;99116.31;5093143;28;20198;-59
2022/01/03 05:30:23;;;;;;;10.77;6.17;;;;;;;2.94;100.00;99130.81;5093107;28;20202;-59
2022/01/03 05:32:50;;;;;;;12.80;6.60;;;;;;;2.83;100.00;99106.88;5093060;28;20217;-59
2022/01/03 05:35:17;;;;;;;12.83;6.57;;;;;;;2.69;100.00;99109.94;5093110;28;20213;-59
2022/01/03 05:37:43;;;;;;;11.03;6.57;;;;;;;2.68;100.00;99111.66;5092869;28;20241;-59
2022/01/03 05:40:11;;;;;;;12.47;6.30;;;;;;;2.75;100.00;99114.75;5092891;28;20568;-59
2022/01/03 05:42:39;;;;;;;10.27;6.30;;;;;;;2.71;100.00;99105.66;5092819;28;20202;-67
2022/01/03 05:45:06;;;;;;;11.87;6.27;;;;;;;2.57;100.00;99108.72;5092615;28;20202;-68
2022/01/03 05:47:35;;;;;;;11.03;6.47;;;;;;;2.59;100.00;99103.59;5092912;28;20221;-67
2022/01/03 05:50:03;;;;;;;12.77;6.80;;;;;;;2.66;100.00;99095.75;5092592;28;20198;-67
2022/01/03 05:52:30;;;;;;;10.80;6.53;;;;;;;2.73;100.00;99098.84;5092471;28;20220;-68
2022/01/03 05:54:57;;;;;;;12.67;6.83;;;;;;;2.76;100.00;99096.19;5092548;28;20201;-68
2022/01/03 05:57:23;;;;;;;12.83;6.87;;;;;;;2.87;100.00;99105.84;5092516;28;20245;-66
2022/01/03 05:59:50;;;;;;;11.57;6.73;;;;;;;2.90;100.00;99101.50;5092401;28;20209;-66
2022/01/03 06:02:18;;;;;;;12.80;6.73;;;;;;;2.99;100.00;99102.00;5092370;28;20221;-61
2022/01/03 06:04:56;;;;;;;15.77;7.73;;;;;;;3.05;100.00;99096.72;5092190;28;20210;-67
2022/01/03 06:07:23;;;;;;;12.90;6.97;;;;;;;3.10;100.00;99097.34;5092501;28;20221;-68
2022/01/03 06:09:51;;;;;;;12.70;6.73;;;;;;;3.15;100.00;99087.88;5092294;28;20603;-68
2022/01/03 06:12:19;;;;;;;14.27;7.80;;;;;;;3.20;100.00;99093.56;5092532;28;20249;-67
2022/01/03 06:14:47;;;;;;;13.57;7.03;;;;;;;3.29;100.00;99098.22;5092082;28;20209;-68
2022/01/03 06:17:14;;;;;;;15.47;8.10;;;;;;;3.26;100.00;99103.41;5092324;28;20228;-59
2022/01/03 06:19:41;;;;;;;14.30;7.40;;;;;;;3.30;100.00;99104.91;5091809;28;20922;-59
2022/01/03 06:22:11;;;;;;;14.60;7.30;;;;;;;3.32;100.00;99108.19;5091958;28;20738;-68
2022/01/03 06:24:39;;;;;;;15.67;7.37;;;;;;;3.35;100.00;99107.25;5091988;28;20584;-59
2022/01/03 06:27:06;;;;;;;18.37;7.40;;;;;;;3.45;100.00;99113.53;5091680;28;20222;-68
2022/01/03 06:29:33;;;;;;;14.87;7.60;;;;;;;3.52;100.00;99116.63;5091849;28;20201;-67
2022/01/03 06:32:00;;;;;;;12.93;6.87;;;;;;;3.58;100.00;99111.31;5091810;28;20236;-59
2022/01/03 06:34:27;;;;;;;13.27;7.03;;;;;;;3.64;100.00;99113.59;5091957;28;20577;-68
2022/01/03 06:36:54;;;;;;;15.03;7.60;;;;;;;3.68;100.00;99110.03;5091880;28;20225;-68
2022/01/03 06:39:22;;;;;;;15.03;7.73;;;;;;;3.71;100.00;99120.00;5092167;28;20253;-68
2022/01/03 06:41:49;;;;;;;15.30;8.03;;;;;;;3.80;100.00;99132.25;5091843;28;20222;-68
2022/01/03 06:44:16;;;;;;;16.30;7.63;;;;;;;3.85;100.00;99130.34;5091531;28;20217;-67
2022/01/03 06:46:43;;;;;;;16.77;8.17;;;;;;;3.97;100.00;99126.44;5091842;28;20244;-59
2022/01/03 06:49:10;;;;;;;15.77;8.33;;;;;;;4.06;100.00;99122.69;5091391;28;20213;-67
2022/01/03 06:51:36;;;;;;;15.07;8.27;;;;;;;4.18;100.00;99119.59;5091664;28;20222;-66
2022/01/03 06:54:05;;;;;;;16.80;7.93;;;;;;;4.35;100.00;99113.75;5091421;28;20216;-66
2022/01/03 06:56:33;;;;;;;13.73;7.20;;;;;;;4.54;100.00;99111.22;5091532;28;20268;-68
2022/01/03 06:59:00;;;;;;;13.90;7.93;;;;;;;4.69;100.00;99114.72;5091263;28;20241;-59
2022/01/03 07:01:27;;;;;;;16.33;7.40;;;;;;;4.87;100.00;99115.56;5091375;28;20222;-62
2022/01/03 07:03:54;;;;;;;14.93;8.10;;;;;;;5.06;100.00;99118.84;5091360;28;20691;-67
2022/01/03 07:06:21;;;;;;;16.23;8.23;;;;;;;5.32;100.00;99124.31;5091293;28;20225;-68
2022/01/03 07:08:48;;;;;;;15.20;8.13;;;;;;;5.51;100.00;99125.03;5091229;28;20687;-68
2022/01/03 07:11:14;;;;;;;21.37;10.50;;;;;;;5.66;100.00;99123.41;5091422;28;20221;-59
2022/01/03 07:13:44;;;;;;;16.63;8.53;;;;;;;5.83;100.00;99109.88;5091350;28;20217;-60
2022/01/03 07:19:00;;;;;;;11.87;6.90;;;;;;;6.16;100.00;99121.69;5091172;28;20287;-59
2022/01/03 07:21:28;;;;;;;12.60;7.00;;;;;;;6.40;100.00;99115.31;5091188;28;20225;-62
2022/01/03 07:23:56;;;;;;;14.67;6.40;;;;;;;6.56;100.00;99108.47;5090968;28;20202;-59
2022/01/03 07:26:23;;;;;;;11.27;5.80;;;;;;;6.64;100.00;99104.69;5090888;28;20225;-67
2022/01/03 07:28:51;;;;;;;11.67;6.10;;;;;;;6.83;100.00;99107.81;5091573;28;20227;-68
2022/01/03 07:31:18;;;;;;;10.10;5.83;;;;;;;6.85;100.00;99106.03;5091011;28;20225;-67
2022/01/03 07:33:46;;;;;;;11.07;6.27;;;;;;;6.81;100.00;99107.09;5091073;28;20220;-68
2022/01/03 07:36:13;;;;;;;10.80;6.57;;;;;;;6.81;100.00;99099.50;5090954;28;20710;-59
2022/01/03 07:38:40;;;;;;;12.77;6.77;;;;;;;6.94;99.95;99085.16;5090772;28;20238;-59
2022/01/03 07:41:08;;;;;;;10.77;6.10;;;;;;;6.98;99.65;99091.72;5090902;28;20226;-68
2022/01/03 07:43:35;;;;;;;11.10;6.50;;;;;;;7.15;99.42;99079.75;5090657;28;20198;-68
2022/01/03 07:46:03;;;;;;;11.03;5.93;;;;;;;7.28;99.19;99085.75;5090900;28;20624;-64
2022/01/03 07:48:30;;;;;;;10.57;6.27;;;;;;;7.43;99.06;99100.09;5090669;28;20205;-68
2022/01/03 07:50:57;;;;;;;8.67;5.63;;;;;;;7.51;98.59;99088.69;5090567;28;20214;-60
2022/01/03 07:53:24;;;;;;;9.93;5.67;;;;;;;7.55;98.61;99100.28;5090995;28;20198;-68
2022/01/03 07:55:51;;;;;;;10.33;5.60;;;;;;;7.62;98.39;99096.47;5090787;28;20738;-59
2022/01/03 07:58:18;;;;;;;8.27;5.37;;;;;;;7.70;98.04;99096.81;5090655;28;20229;-60
2022/01/03 08:00:45;;;;;;;9.57;5.43;;;;;;;7.86;97.43;99100.09;5090660;28;20213;-59
2022/01/03 08:03:13;;;;;;;8.73;5.30;;;;;;;8.15;96.94;99100.03;5090738;28;20226;-67
2022/01/03 08:05:40;;;;;;;8.03;4.80;;;;;;;8.44;95.45;99095.69;5090436;28;20233;-59
2022/01/03 08:08:09;;;;;;;9.07;5.00;;;;;;;8.78;94.22;99103.72;5090484;28;20214;-68
2022/01/03 08:10:38;;;;;;;6.90;4.70;;;;;;;9.00;93.08;99103.16;5090841;28;20234;-68
2022/01/03 08:13:05;;;;;;;6.97;4.80;;;;;;;9.21;91.67;99109.38;5090393;28;20232;-59
2022/01/03 08:15:32;;;;;;;6.83;4.73;;;;;;;9.38;91.90;99098.06;5090446;28;20228;-67
2022/01/03 08:17:59;;;;;;;6.60;4.63;;;;;;;9.49;91.70;99105.00;5090688;28;20582;-59
2022/01/03 08:20:27;;;;;;;6.50;4.50;;;;;;;9.53;90.99;99106.41;5090466;28;20194;-68
2022/01/03 08:22:54;;;;;;;7.70;4.37;;;;;;;9.72;89.74;99106.81;5090861;28;20194;-67
2022/01/03 08:25:21;;;;;;;5.07;3.53;;;;;;;10.00;89.90;99094.66;5090473;28;20198;-59
2022/01/03 08:27:48;;;;;;;4.87;3.50;;;;;;;10.21;87.26;99092.38;5092894;28;20210;-67
2022/01/03 08:30:15;;;;;;;4.23;3.10;;;;;;;10.39;86.27;99108.16;5093948;28;20198;-68
2022/01/03 08:32:42;;;;;;;6.00;3.70;;;;;;;10.63;84.67;99103.84;5094537;28;20206;-59
2022/01/03 08:35:09;;;;;;;6.00;3.67;;;;;;;10.54;83.52;99104.50;5094258;28;20205;-67
2022/01/03 08:37:38;;;;;;;5.30;3.50;;;;;;;10.57;82.78;99094.06;5093991;28;20221;-68
2022/01/03 08:40:06;;;;;;;6.60;3.80;;;;;;;10.71;82.16;99102.50;5093928;28;20256;-59
2022/01/03 08:42:34;;;;;;;5.33;3.40;;;;;;;10.84;81.01;99090.41;5093894;28;20703;-67
2022/01/03 08:45:01;;;;;;;5.07;3.37;;;;;;;10.88;79.58;99091.84;5094031;28;20212;-59
2022/01/03 08:47:28;;;;;;;5.07;3.77;;;;;;;10.99;78.73;99089.28;5094047;28;20248;-66
2022/01/03 08:49:55;;;;;;;4.93;3.27;;;;;;;11.31;77.92;99083.50;5093931;28;20209;-67
2022/01/03 08:52:21;;;;;;;7.80;3.53;;;;;;;11.57;76.03;99084.09;5093895;28;20221;-60
2022/01/03 08:54:50;;;;;;;4.37;3.17;;;;;;;11.50;73.81;99065.84;5093951;28;20202;-67
2022/01/03 08:57:18;;;;;;;4.50;3.20;;;;;;;11.67;75.64;99058.63;5093619;28;20225;-60
2022/01/03 08:59:45;;;;;;;4.47;3.20;;;;;;;11.49;74.90;99053.97;5093690;28;20233;-60
2022/01/03 09:02:12;;;;;;;4.87;3.30;;;;;;;11.52;75.50;99056.31;5093792;28;20718;-68
2022/01/03 09:04:40;;;;;;;5.83;3.33;;;;;;;11.69;75.07;99054.16;5093699;28;20190;-60
2022/01/03 09:07:07;;;;;;;5.23;3.23;;;;;;;12.03;74.69;99051.59;5093672;28;20249;-67
2022/01/03 09:09:34;;;;;;;5.40;3.20;;;;;;;12.34;73.14;99043.09;5093517;28;20202;-68
2022/01/03 09:12:03;;;;;;;4.77;3.40;;;;;;;12.51;71.83;99038.34;5093528;28;20217;-59
2022/01/03 09:14:31;;;;;;;4.83;3.07;;;;;;;12.28;71.30;99038.44;5093325;28;20202;-60
2022/01/03 09:16:57;;;;;;;3.97;2.90;;;;;;;12.02;70.82;99037.16;5093269;28;20225;-68
2022/01/03 09:19:24;;;;;;;4.50;3.30;;;;;;;12.00;72.26;99032.13;5093455;28;20229;-68
2022/01/03 09:21:58;;;;;;;4.83;3.20;;;;;;;12.08;74.26;99031.53;5093744;28;20219;-68
2022/01/03 09:24:30;;;;;;;5.93;3.20;;;;;;;12.07;72.78;99025.59;5093250;28;20212;-60
2022/01/03 09:29:42;;;;;;;5.20;3.50;;;;;;;12.39;71.65;99035.00;5093218;28;20327;-60
2022/01/03 09:32:09;;;;;;;3.77;2.93;;;;;;;12.39;70.20;99040.13;5092757;28;20234;-69
2022/01/03 09:34:36;;;;;;;5.87;3.47;;;;;;;12.20;71.02;99035.69;5092982;28;20674;-59
2022/01/03 09:37:03;;;;;;;4.30;3.10;;;;;;;12.24;69.16;99029.38;5092857;28;20218;-60
2022/01/03 09:39:30;;;;;;;4.20;3.30;;;;;;;12.53;69.22;99034.72;5092177;28;20265;-60
2022/01/03 09:42:01;;;;;;;4.67;3.20;;;;;;;12.77;67.37;99029.34;5093030;28;20222;-68
2022/01/03 09:44:31;;;;;;;3.57;2.73;;;;;;;12.97;64.41;99032.00;5093030;28;20221;-67
2022/01/03 09:47:01;;;;;;;4.97;3.20;;;;;;;13.07;65.76;99031.13;5092545;28;20699;-60
2022/01/03 09:49:33;;;;;;;3.63;2.60;;;;;;;13.26;64.88;99029.59;5092689;28;20283;-69
2022/01/03 09:52:02;;;;;;;3.70;2.80;;;;;;;13.30;63.25;99042.06;5092511;28;20250;-60
2022/01/03 09:54:30;;;;;;;6.50;3.27;;;;;;;13.27;64.16;99032.06;5092398;28;20206;-60
2022/01/03 09:56:59;;;;;;;3.50;2.93;;;;;;;13.15;63.44;99033.06;5092472;28;20218;-69
2022/01/03 09:59:27;;;;;;;4.13;2.90;;;;;;;13.00;64.20;99018.91;5092388;28;20232;-68
2022/01/03 10:01:56;;;;;;;6.00;3.27;;;;;;;13.05;64.60;99006.50;5092522;28;20218;-60
2022/01/03 10:04:24;;;;;;;5.33;3.50;;;;;;;13.05;64.81;99007.31;5092664;28;20207;-60
2022/01/03 10:06:51;;;;;;;3.90;2.73;;;;;;;13.09;64.45;99013.03;5092413;28;20226;-60
2022/01/03 10:09:19;;;;;;;4.80;3.33;;;;;;;13.00;65.32;99008.66;5092287;28;20201;-60
2022/01/03 10:11:46;;;;;;;4.57;2.80;;;;;;;12.96;64.53;99002.16;5092258;28;20230;-60
2022/01/03 10:14:13;;;;;;;5.03;3.40;;;;;;;12.82;64.60;99001.53;5092041;28;20723;-69
2022/01/03 10:16:40;;;;;;;5.60;3.37;;;;;;;12.66;65.58;98996.06;5092065;28;20743;-60
2022/01/03 10:19:07;;;;;;;5.13;3.37;;;;;;;12.76;65.13;98986.66;5092124;28;20655;-61
2022/01/03 10:21:38;;;;;;;4.00;2.80;;;;;;;12.89;64.86;98977.00;5092335;28;20218;-69
2022/01/03 10:24:06;;;;;;;4.90;2.73;;;;;;;13.24;63.48;98973.22;5091876;28;20214;-60
2022/01/03 10:26:34;;;;;;;5.20;3.10;;;;;;;13.51;62.67;98971.84;5092134;28;20616;-60
2022/01/03 10:29:15;;;;;;;3.30;2.80;;;;;;;13.65;62.01;98962.94;5091775;28;20235;-69
2022/01/03 10:31:43;;;;;;;4.13;3.10;;;;;;;13.91;61.77;98963.22;5091703;28;20243;-69
2022/01/03 10:34:13;;;;;;;5.37;3.60;;;;;;;14.21;60.34;98960.50;5091862;28;20204;-60
2022/01/03 10:36:44;;;;;;;5.07;3.17;;;;;;;14.38;59.61;98956.41;5091699;28;20228;-69
2022/01/03 10:39:16;;;;;;;5.57;3.50;;;;;;;14.33;59.63;98960.34;5091403;28;20386;-60
2022/01/03 10:41:45;;;;;;;5.90;3.40;;;;;;;14.26;59.43;98960.91;5090661;28;20286;-68
2022/01/03 10:44:30;;;;;;;5.30;3.40;;;;;;;14.19;59.18;98962.38;5091464;28;20258;-69
2022/01/03 10:46:57;;;;;;;5.40;3.53;;;;;;;14.44;60.64;98955.06;5091568;28;20729;-61
2022/01/03 10:49:27;;;;;;;5.87;3.87;;;;;;;14.54;59.21;98950.72;5091698;28;20579;-69
2022/01/03 10:52:14;;;;;;;5.77;3.60;;;;;;;14.63;59.50;98949.06;5090510;28;20253;-60
2022/01/03 10:54:42;;;;;;;4.57;3.00;;;;;;;14.86;58.56;98939.25;5091403;28;20194;-69
2022/01/03 10:57:12;;;;;;;5.07;3.17;;;;;;;14.89;58.89;98938.97;5091458;28;20230;-60
2022/01/03 10:59:39;;;;;;;4.77;3.10;;;;;;;14.78;57.55;98932.25;5091058;28;20237;-60
2022/01/03 11:02:07;;;;;;;5.07;2.93;;;;;;;15.03;58.19;98935.91;5091327;28;20217;-60
2022/01/03 11:04:42;;;;;;;4.27;2.90;;;;;;;15.08;57.24;98932.91;5091455;28;20642;-60
2022/01/03 11:13:14;;;;;;;6.90;3.00;;;;;;;14.61;59.37;98930.41;5091398;28;20244;-61
2022/01/03 11:15:42;;;;;;;4.63;3.00;;;;;;;14.38;58.32;98935.03;5091050;28;20224;-69
2022/01/03 11:18:16;;;;;;;5.57;3.77;;;;;;;14.19;60.24;98926.38;5090998;28;20212;-60
2022/01/03 11:20:44;;;;;;;5.53;3.77;;;;;;;14.24;61.21;98929.38;5090965;28;20605;-61
2022/01/03 11:23:19;;;;;;;5.90;3.60;;;;;;;14.18;60.99;98922.22;5090925;28;20412;-69
2022/01/03 11:25:46;;;;;;;4.93;3.30;;;;;;;14.27;60.69;98918.81;5091145;28;20817;-69
2022/01/03 11:28:13;;;;;;;4.77;3.03;;;;;;;14.31;59.92;98918.53;5090938;28;20211;-60
2022/01/03 11:30:40;;;;;;;4.67;2.83;;;;;;;14.34;59.25;98919.09;5091110;28;20231;-69
2022/01/03 11:33:10;;;;;;;4.17;2.97;;;;;;;14.23;58.94;98909.75;5090922;28;20343;-66
2022/01/03 11:35:37;;;;;;;3.30;2.60;;;;;;;14.10;60.41;98906.66;5091227;28;20214;-60
2022/01/03 11:38:07;;;;;;;5.27;3.30;;;;;;;13.95;60.49;98913.16;5091122;28;20723;-67
2022/01/03 11:40:36;;;;;;;4.67;3.10;;;;;;;13.92;59.83;98921.16;5090400;28;20675;-67
2022/01/03 11:43:03;;;;;;;4.67;3.13;;;;;;;13.90;62.05;98931.56;5090696;28;20208;-68
2022/01/03 11:45:31;;;;;;;4.67;3.13;;;;;;;13.82;61.90;98929.69;5090726;28;20208;-60